createdAt,value
2022-08-04T00:00:15.674Z,10.60
2022-08-04T00:03:22.769Z,9.00
2022-08-04T00:05:59.465Z,9.40
2022-08-04T00:08:44.228Z,8.20
2022-08-04T00:11:26.301Z,9.50
2022-08-04T00:14:03.375Z,8.70
2022-08-04T00:16:38.827Z,9.30
2022-08-04T00:19:16.780Z,9.00
2022-08-04T00:21:51.520Z,8.60
2022-08-04T00:24:22.153Z,10.60
2022-08-04T00:26:53.884Z,11.50
2022-08-04T00:29:23.070Z,9.00
2022-08-04T00:31:56.113Z,9.90
2022-08-04T00:34:29.501Z,9.60
2022-08-04T00:36:58.466Z,10.90
2022-08-04T00:39:27.363Z,9.10
2022-08-04T00:42:25.151Z,9.40
2022-08-04T00:45:24.715Z,11.30
2022-08-04T00:48:22.842Z,9.70
2022-08-04T00:51:05.108Z,9.50
2022-08-04T00:54:02.269Z,10.00
2022-08-04T00:56:35.934Z,8.90
2022-08-04T00:59:35.470Z,9.10
2022-08-04T01:02:35.055Z,8.60
2022-08-04T01:05:06.072Z,9.60
2022-08-04T01:07:59.806Z,12.30
2022-08-04T01:10:33.071Z,11.60
2022-08-04T01:13:20.901Z,9.40
2022-08-04T01:16:02.857Z,13.70
2022-08-04T01:18:52.428Z,9.70
2022-08-04T01:21:51.995Z,14.00
2022-08-04T01:24:41.640Z,10.70
2022-08-04T01:27:27.797Z,13.80
2022-08-04T01:30:01.291Z,10.80
2022-08-04T01:32:36.455Z,11.10
2022-08-04T01:35:11.084Z,12.00
2022-08-04T01:38:02.681Z,11.10
2022-08-04T01:40:47.576Z,10.60
2022-08-04T01:43:16.232Z,10.60
2022-08-04T01:45:57.530Z,11.40
2022-08-04T01:48:26.956Z,13.00
2022-08-04T01:50:58.683Z,11.40
2022-08-04T01:53:35.668Z,10.70
2022-08-04T01:56:04.768Z,11.20
2022-08-04T01:58:35.685Z,10.90
2022-08-04T02:01:08.550Z,12.30
2022-08-04T02:06:39.149Z,10.10
2022-08-04T02:09:16.945Z,10.30
2022-08-04T02:11:52.410Z,10.80
2022-08-04T02:14:41.632Z,10.60
2022-08-04T02:17:15.178Z,10.00
2022-08-04T02:19:45.420Z,10.10
2022-08-04T02:22:18.732Z,10.60
2022-08-04T02:24:50.841Z,12.70
2022-08-04T02:27:27.410Z,11.90
2022-08-04T02:29:59.944Z,10.20
2022-08-04T02:32:30.423Z,13.80
2022-08-04T02:35:05.812Z,9.90
2022-08-04T02:37:34.952Z,9.50
2022-08-04T02:40:06.458Z,11.10
2022-08-04T02:42:34.291Z,9.50
2022-08-04T02:45:03.111Z,11.20
2022-08-04T02:48:29.228Z,9.40
2022-08-04T02:50:28.181Z,10.00
2022-08-04T02:53:02.909Z,12.80
2022-08-04T02:55:33.057Z,11.60
2022-08-04T02:58:03.472Z,11.00
2022-08-04T03:00:31.855Z,10.40
2022-08-04T03:03:22.845Z,10.40
2022-08-04T03:06:29.748Z,10.50
2022-08-04T03:09:29.268Z,9.60
2022-08-04T03:12:32.458Z,11.70
2022-08-04T03:15:13.396Z,10.40
2022-08-04T03:18:08.133Z,10.20
2022-08-04T03:21:07.716Z,13.50
2022-08-04T03:23:51.246Z,10.90
2022-08-04T03:26:52.974Z,9.90
2022-08-04T03:29:59.704Z,10.90
2022-08-04T03:32:43.223Z,10.60
2022-08-04T03:35:42.843Z,9.90
2022-08-04T03:38:42.465Z,9.70
2022-08-04T03:41:54.913Z,11.30
2022-08-04T03:44:46.875Z,11.40
2022-08-04T03:47:23.370Z,9.70
2022-08-04T03:50:25.052Z,11.90
2022-08-04T03:53:11.531Z,9.70
2022-08-04T03:56:11.260Z,11.30
2022-08-04T03:59:11.138Z,11.30
2022-08-04T04:02:09.578Z,10.80
2022-08-04T04:04:56.551Z,10.60
2022-08-04T04:07:40.346Z,10.40
2022-08-04T04:10:35.939Z,12.70
2022-08-04T04:13:07.020Z,9.60
2022-08-04T04:15:56.294Z,12.00
2022-08-04T04:18:34.405Z,12.30
2022-08-04T04:21:20.835Z,10.10
2022-08-04T04:23:57.186Z,14.40
2022-08-04T04:26:56.724Z,10.90
2022-08-04T04:29:33.416Z,11.50
2022-08-04T04:32:22.981Z,11.90
2022-08-04T04:35:13.166Z,12.20
2022-08-04T04:38:07.191Z,13.20
2022-08-04T04:43:50.935Z,12.30
2022-08-04T04:46:21.435Z,13.60
2022-08-04T04:49:01.116Z,12.30
2022-08-04T04:51:28.680Z,12.90
2022-08-04T04:54:18.833Z,12.00
2022-08-04T04:57:09.758Z,12.70
2022-08-04T04:59:49.109Z,11.60
2022-08-04T05:02:19.532Z,14.90
2022-08-04T05:04:59.587Z,12.00
2022-08-04T05:07:50.320Z,12.10
2022-08-04T05:10:36.517Z,13.20
2022-08-04T05:14:38.678Z,12.90
2022-08-04T05:16:19.261Z,13.80
2022-08-04T05:18:55.751Z,12.20
2022-08-04T05:21:39.807Z,12.90
2022-08-04T05:24:12.058Z,13.90
2022-08-04T05:26:47.274Z,13.50
2022-08-04T05:29:31.882Z,12.90
2022-08-04T05:32:04.713Z,11.70
2022-08-04T05:34:39.341Z,11.50
2022-08-04T05:37:10.690Z,11.60
2022-08-04T05:39:48.270Z,11.60
2022-08-04T05:42:16.589Z,10.90
2022-08-04T05:44:50.825Z,11.70
2022-08-04T05:47:21.493Z,14.90
2022-08-04T05:50:01.324Z,13.90
2022-08-04T05:52:35.074Z,14.40
2022-08-04T05:55:03.850Z,13.50
2022-08-04T05:57:33.260Z,12.90
2022-08-04T06:00:31.716Z,10.40
2022-08-04T06:02:57.755Z,10.80
2022-08-04T06:05:26.141Z,12.00
2022-08-04T06:08:07.764Z,11.40
2022-08-04T06:10:44.713Z,12.20
2022-08-04T06:13:49.530Z,14.80
2022-08-04T06:16:06.467Z,11.00
2022-08-04T06:19:59.457Z,10.30
2022-08-04T06:21:28.319Z,11.80
2022-08-04T06:24:04.241Z,11.50
2022-08-04T06:26:34.898Z,15.30
2022-08-04T06:29:04.815Z,18.10
2022-08-04T06:32:28.052Z,14.80
2022-08-04T06:34:38.565Z,12.50
2022-08-04T06:37:08.475Z,11.20
2022-08-04T06:39:37.100Z,10.60
2022-08-04T06:42:22.121Z,11.50
2022-08-04T06:44:56.632Z,13.10
2022-08-04T06:47:25.637Z,12.60
2022-08-04T06:51:30.949Z,11.00
2022-08-04T06:52:45.839Z,10.90
2022-08-04T06:55:14.773Z,10.40
2022-08-04T06:57:44.034Z,10.50
2022-08-04T07:00:14.333Z,12.10
2022-08-04T07:02:48.044Z,12.00
2022-08-04T07:05:16.948Z,11.60
2022-08-04T07:07:57.337Z,12.50
2022-08-04T07:10:30.614Z,14.70
2022-08-04T07:13:00.526Z,15.10
2022-08-04T07:15:29.154Z,14.80
2022-08-04T07:18:00.206Z,12.40
2022-08-04T07:20:35.759Z,10.00
2022-08-04T07:23:06.401Z,9.50
2022-08-04T07:25:58.999Z,11.80
2022-08-04T07:28:28.500Z,13.10
2022-08-04T07:30:58.229Z,13.70
2022-08-04T07:33:27.615Z,12.20
2022-08-04T07:36:06.039Z,13.50
2022-08-04T07:38:50.617Z,10.40
2022-08-04T07:41:40.664Z,9.90
2022-08-04T07:44:10.072Z,9.70
2022-08-04T07:46:37.762Z,11.20
2022-08-04T07:49:06.466Z,9.40
2022-08-04T07:51:36.332Z,10.10
2022-08-04T07:54:05.679Z,10.90
2022-08-04T07:56:36.766Z,9.70
2022-08-04T07:59:04.752Z,8.60
2022-08-04T08:01:37.035Z,10.50
2022-08-04T08:04:07.342Z,10.10
2022-08-04T08:06:42.692Z,8.80
2022-08-04T08:09:17.934Z,10.40
2022-08-04T08:12:37.144Z,10.20
2022-08-04T08:14:36.955Z,10.20
2022-08-04T08:17:06.742Z,10.60
2022-08-04T08:19:35.620Z,9.20
2022-08-04T08:22:04.206Z,9.50
2022-08-04T08:24:35.962Z,8.50
2022-08-04T08:27:04.986Z,8.50
2022-08-04T08:29:34.534Z,9.30
2022-08-04T08:32:08.310Z,10.30
2022-08-04T08:34:38.624Z,10.10
2022-08-04T08:37:22.791Z,8.50
2022-08-04T08:40:07.205Z,8.50
2022-08-04T08:42:55.137Z,9.30
2022-08-04T08:45:50.577Z,7.80
2022-08-04T08:48:51.172Z,7.60
2022-08-04T08:51:34.652Z,8.30
2022-08-04T08:54:21.929Z,8.40
2022-08-04T08:57:11.601Z,8.30
2022-08-04T08:59:53.329Z,9.10
2022-08-04T09:02:43.132Z,8.70
2022-08-04T09:05:40.097Z,14.30
2022-08-04T09:08:13.740Z,12.90
2022-08-04T09:10:50.839Z,10.40
2022-08-04T09:13:27.635Z,12.00
2022-08-04T09:16:18.421Z,10.70
2022-08-04T09:19:37.507Z,9.60
2022-08-04T09:22:16.261Z,10.90
2022-08-04T09:24:54.120Z,14.30
2022-08-04T09:27:31.124Z,8.20
2022-08-04T09:30:03.977Z,9.50
2022-08-04T09:32:57.551Z,9.70
2022-08-04T09:35:56.216Z,12.30
2022-08-04T09:38:39.445Z,11.40
2022-08-04T09:44:49.271Z,10.40
2022-08-04T09:47:53.847Z,9.70
2022-08-04T09:50:38.750Z,7.30
2022-08-04T09:53:24.969Z,7.20
2022-08-04T09:56:34.860Z,10.10
2022-08-04T09:59:26.764Z,9.20
2022-08-04T10:02:03.181Z,8.60
2022-08-04T10:04:33.517Z,8.40
2022-08-04T10:07:23.558Z,12.30
2022-08-04T10:10:09.870Z,10.40
2022-08-04T10:13:05.733Z,8.90
2022-08-04T10:15:46.283Z,8.10
2022-08-04T10:18:29.832Z,9.00
2022-08-04T10:21:15.825Z,11.20
2022-08-04T10:24:00.047Z,9.70
2022-08-04T10:26:57.521Z,10.00
2022-08-04T10:29:37.217Z,9.60
2022-08-04T10:32:29.319Z,6.90
2022-08-04T10:34:59.450Z,8.50
2022-08-04T10:38:06.395Z,8.70
2022-08-04T10:40:54.310Z,11.50
2022-08-04T10:43:36.948Z,10.20
2022-08-04T10:46:18.979Z,11.40
2022-08-04T10:48:50.453Z,9.10
2022-08-04T10:51:22.098Z,9.60
2022-08-04T10:54:13.406Z,8.50
2022-08-04T10:56:46.608Z,7.90
2022-08-04T10:59:24.681Z,8.40
2022-08-04T11:02:03.621Z,10.40
2022-08-04T11:04:42.198Z,8.10
2022-08-04T11:07:12.072Z,7.20
2022-08-04T11:09:42.850Z,14.20
2022-08-04T11:12:19.426Z,13.50
2022-08-04T11:14:56.036Z,7.40
2022-08-04T11:17:36.156Z,10.00
2022-08-04T11:20:36.569Z,13.90
2022-08-04T11:23:23.791Z,8.70
2022-08-04T11:26:09.571Z,7.20
2022-08-04T11:29:03.303Z,10.00
2022-08-04T11:31:35.393Z,9.60
2022-08-04T11:34:19.456Z,11.10
2022-08-04T11:37:19.021Z,11.00
2022-08-04T11:39:59.221Z,10.60
2022-08-04T11:42:30.847Z,12.40
2022-08-04T11:45:11.097Z,8.40
2022-08-04T11:47:39.703Z,7.30
2022-08-04T11:50:29.154Z,8.20
2022-08-04T11:52:58.227Z,8.30
2022-08-04T11:55:29.693Z,9.10
2022-08-04T11:57:57.788Z,8.80
2022-08-04T12:00:29.642Z,9.30
2022-08-04T12:03:20.672Z,10.70
2022-08-04T12:06:04.218Z,10.60
2022-08-04T12:08:54.031Z,13.10
2022-08-04T12:11:44.456Z,8.60
2022-08-04T12:14:44.511Z,13.40
2022-08-04T12:17:15.837Z,11.90
2022-08-04T12:20:04.797Z,11.40
2022-08-04T12:22:52.038Z,10.40
2022-08-04T12:25:29.202Z,12.40
2022-08-04T12:28:12.277Z,10.80
2022-08-04T12:34:04.452Z,12.60
2022-08-04T12:36:44.546Z,10.60
2022-08-04T12:39:18.804Z,11.40
2022-08-04T12:41:56.992Z,8.50
2022-08-04T12:44:36.420Z,9.20
2022-08-04T12:47:27.512Z,11.60
2022-08-04T12:50:03.712Z,11.40
2022-08-04T12:55:33.247Z,8.30
2022-08-04T12:58:03.834Z,7.80
2022-08-04T13:00:43.813Z,5.80
2022-08-04T13:03:17.798Z,8.00
2022-08-04T13:05:46.702Z,7.50
2022-08-04T13:08:19.792Z,6.80
2022-08-04T13:10:52.115Z,7.60
2022-08-04T13:13:24.465Z,7.70
2022-08-04T13:15:57.567Z,5.70
2022-08-04T13:18:31.942Z,6.30
2022-08-04T13:21:23.104Z,6.60
2022-08-04T13:24:21.294Z,6.90
2022-08-04T13:27:03.243Z,5.30
2022-08-04T13:29:58.652Z,4.10
2022-08-04T13:32:26.086Z,6.20
2022-08-04T13:34:55.943Z,4.70
2022-08-04T13:37:30.473Z,4.40
2022-08-04T13:39:59.488Z,8.00
2022-08-04T13:42:28.255Z,6.50
2022-08-04T13:44:59.465Z,7.20
2022-08-04T13:47:31.376Z,7.30
2022-08-04T13:50:20.529Z,10.10
2022-08-04T13:52:52.668Z,10.40
2022-08-04T13:55:24.735Z,7.30
2022-08-04T13:58:21.395Z,12.90
2022-08-04T14:00:53.840Z,11.40
2022-08-04T14:03:34.450Z,6.60
2022-08-04T14:06:57.759Z,8.50
2022-08-04T14:09:35.170Z,8.90
2022-08-04T14:12:37.735Z,14.40
2022-08-04T14:14:54.898Z,13.10
2022-08-04T14:17:29.819Z,8.00
2022-08-04T14:20:01.085Z,10.20
2022-08-04T14:22:34.624Z,9.40
2022-08-04T14:25:05.758Z,10.10
2022-08-04T14:27:54.485Z,5.20
2022-08-04T14:30:27.764Z,7.40
2022-08-04T14:32:59.681Z,5.00
2022-08-04T14:35:58.353Z,6.10
2022-08-04T14:38:43.392Z,6.70
2022-08-04T14:41:11.606Z,6.30
2022-08-04T14:43:46.281Z,3.80
2022-08-04T14:46:14.515Z,6.20
2022-08-04T14:49:00.687Z,3.90
2022-08-04T14:51:36.674Z,3.10
2022-08-04T14:54:08.591Z,5.50
2022-08-04T14:56:51.252Z,3.50
2022-08-04T14:59:18.950Z,4.90
2022-08-04T15:02:01.314Z,4.00
2022-08-04T15:04:31.430Z,6.40
2022-08-04T15:07:04.477Z,3.40
2022-08-04T15:09:33.538Z,4.30
2022-08-04T15:12:04.264Z,4.30
2022-08-04T15:14:37.345Z,5.30
2022-08-04T15:17:12.335Z,5.60
2022-08-04T15:19:56.605Z,3.10
2022-08-04T15:22:24.579Z,4.90
2022-08-04T15:24:55.434Z,5.00
2022-08-04T15:27:32.183Z,3.60
2022-08-04T15:30:07.538Z,5.40
2022-08-04T15:32:40.159Z,4.50
2022-08-04T15:35:13.363Z,3.90
2022-08-04T15:37:56.870Z,3.20
2022-08-04T15:40:39.989Z,3.50
2022-08-04T15:43:39.647Z,5.30
2022-08-04T15:46:42.434Z,3.70
2022-08-04T15:48:55.196Z,4.50
2022-08-04T15:51:30.457Z,6.20
2022-08-04T15:54:02.748Z,5.60
2022-08-04T15:56:32.093Z,6.00
2022-08-04T15:58:59.721Z,4.00
2022-08-04T16:01:28.044Z,4.00
2022-08-04T16:04:00.119Z,2.80
2022-08-04T16:06:30.388Z,3.90
2022-08-04T16:09:04.251Z,7.20
2022-08-04T16:11:39.884Z,7.40
2022-08-04T16:14:09.423Z,41.90
2022-08-04T16:16:37.006Z,7.20
2022-08-04T16:19:11.028Z,4.50
2022-08-04T16:22:05.257Z,6.00
2022-08-04T16:24:40.932Z,18.80
2022-08-04T16:27:13.763Z,19.70
2022-08-04T16:29:42.990Z,39.30
2022-08-04T16:32:16.445Z,8.00
2022-08-04T16:35:04.941Z,6.80
2022-08-04T16:37:35.878Z,22.10
2022-08-04T16:40:38.204Z,27.50
2022-08-04T16:43:08.261Z,37.10
2022-08-04T16:45:40.240Z,11.50
2022-08-04T16:48:09.401Z,17.00
2022-08-04T16:50:56.213Z,10.40
2022-08-04T16:53:53.107Z,3.80
2022-08-04T16:56:18.727Z,8.60
2022-08-04T16:58:53.178Z,7.00
2022-08-04T17:01:33.034Z,6.60
2022-08-04T17:04:07.514Z,7.00
2022-08-04T17:06:41.823Z,3.30
2022-08-04T17:09:12.506Z,6.00
2022-08-04T17:11:41.573Z,5.00
2022-08-04T17:14:09.621Z,12.70
2022-08-04T17:16:41.903Z,7.20
2022-08-04T17:19:23.899Z,7.50
2022-08-04T17:22:04.914Z,7.90
2022-08-04T17:24:35.105Z,8.80
2022-08-04T17:28:09.086Z,14.50
2022-08-04T17:29:51.881Z,20.40
2022-08-04T17:32:22.142Z,25.00
2022-08-04T17:34:53.173Z,14.10
2022-08-04T17:37:39.602Z,8.40
2022-08-04T17:40:13.342Z,10.10
2022-08-04T17:42:41.617Z,9.60
2022-08-04T17:48:09.055Z,13.00
2022-08-04T17:50:43.452Z,15.60
2022-08-04T17:55:59.651Z,7.40
2022-08-04T17:58:34.542Z,13.70
2022-08-04T18:01:23.691Z,14.40
2022-08-04T18:03:53.551Z,12.70
2022-08-04T18:06:25.396Z,14.00
2022-08-04T18:08:57.878Z,17.70
2022-08-04T18:11:29.605Z,18.40
2022-08-04T18:16:45.394Z,22.50
2022-08-04T18:19:15.179Z,17.70
2022-08-04T18:21:59.501Z,18.30
2022-08-04T18:24:35.607Z,19.00
2022-08-04T18:27:21.862Z,14.10
2022-08-04T18:30:34.632Z,11.20
2022-08-04T18:33:10.136Z,20.60
2022-08-04T18:36:31.448Z,27.20
2022-08-04T18:38:23.378Z,18.60
2022-08-04T18:40:53.044Z,20.60
2022-08-04T18:43:27.998Z,39.60
2022-08-04T18:46:00.918Z,60.10
2022-08-04T18:48:37.330Z,55.70
2022-08-04T18:51:22.758Z,36.80
2022-08-04T18:53:55.215Z,43.70
2022-08-04T18:56:29.659Z,57.00
2022-08-04T18:59:01.675Z,60.50
2022-08-04T19:02:12.240Z,120.90
2022-08-04T19:04:33.724Z,83.20
2022-08-04T19:07:29.141Z,66.10
2022-08-04T19:09:58.125Z,51.20
2022-08-04T19:12:28.280Z,54.90
2022-08-04T19:15:08.026Z,59.00
2022-08-04T19:17:54.118Z,64.10
2022-08-04T19:20:28.262Z,60.80
2022-08-04T19:24:11.559Z,57.90
2022-08-04T19:26:01.241Z,56.50
2022-08-04T19:28:35.226Z,48.90
2022-08-04T19:31:08.687Z,48.90
2022-08-04T19:36:29.569Z,38.90
2022-08-04T19:39:03.995Z,47.20
2022-08-04T19:42:06.204Z,46.80
2022-08-04T19:44:25.046Z,39.20
2022-08-04T19:47:00.446Z,35.50
2022-08-04T19:50:04.292Z,40.20
2022-08-04T19:52:33.436Z,38.80
2022-08-04T19:55:09.788Z,30.50
2022-08-04T19:57:46.547Z,24.00
2022-08-04T20:00:33.190Z,18.90
2022-08-04T20:03:11.417Z,14.20
2022-08-04T20:05:55.091Z,13.90
2022-08-04T20:08:27.972Z,21.20
2022-08-04T20:10:57.954Z,14.60
2022-08-04T20:13:30.900Z,7.90
2022-08-04T20:16:30.085Z,16.80
2022-08-04T20:19:02.394Z,16.80
2022-08-04T20:21:36.749Z,10.10
2022-08-04T20:27:15.477Z,10.10
2022-08-04T20:29:51.127Z,10.00
2022-08-04T20:32:21.889Z,8.50
2022-08-04T20:34:52.380Z,11.00
2022-08-04T20:37:25.082Z,8.10
2022-08-04T20:40:04.259Z,8.90
2022-08-04T20:42:33.742Z,8.00
2022-08-04T20:45:02.415Z,12.90
2022-08-04T20:47:35.567Z,10.60
2022-08-04T20:50:09.009Z,11.10
2022-08-04T20:52:39.405Z,17.90
2022-08-04T20:55:08.640Z,15.20
2022-08-04T20:57:48.700Z,10.20
2022-08-04T21:00:26.327Z,10.50
2022-08-04T21:02:59.173Z,17.40
2022-08-04T21:05:27.625Z,15.40
2022-08-04T21:07:57.008Z,22.30
2022-08-04T21:10:25.781Z,28.70
2022-08-04T21:12:54.616Z,35.10
2022-08-04T21:15:50.754Z,37.80
2022-08-04T21:18:16.734Z,46.50
2022-08-04T21:20:45.247Z,37.40
2022-08-04T21:23:16.152Z,25.90
2022-08-04T21:25:45.596Z,24.20
2022-08-04T21:28:20.027Z,27.20
2022-08-04T21:30:54.449Z,26.60
2022-08-04T21:33:50.092Z,39.10
2022-08-04T21:36:13.417Z,31.10
2022-08-04T21:38:51.134Z,28.30
2022-08-04T21:41:25.090Z,18.10
2022-08-04T21:43:56.079Z,19.50
2022-08-04T21:46:23.809Z,15.40
2022-08-04T21:48:51.600Z,22.00
2022-08-04T21:52:00.685Z,15.60
2022-08-04T21:54:15.283Z,13.10
2022-08-04T21:56:50.887Z,10.80
2022-08-04T21:59:23.252Z,10.40
2022-08-04T22:01:54.873Z,14.30
2022-08-04T22:04:22.730Z,11.90
2022-08-04T22:06:52.008Z,10.10
2022-08-04T22:09:21.895Z,14.00
2022-08-04T22:11:51.550Z,10.90
2022-08-04T22:14:28.924Z,10.70
2022-08-04T22:19:56.258Z,16.30
2022-08-04T22:22:27.213Z,10.10
2022-08-04T22:25:01.892Z,11.10
2022-08-04T22:27:57.978Z,16.30
2022-08-04T22:30:33.067Z,15.60
2022-08-04T22:33:01.667Z,16.60
2022-08-04T22:35:43.743Z,17.70
2022-08-04T22:38:23.947Z,15.60
2022-08-04T22:41:01.863Z,11.00
2022-08-04T22:43:32.186Z,10.70
2022-08-04T22:46:08.926Z,9.20
2022-08-04T22:48:43.345Z,9.80
2022-08-04T22:51:12.860Z,12.50
2022-08-04T22:53:42.106Z,9.60
2022-08-04T22:56:37.147Z,11.60
2022-08-04T22:59:11.181Z,10.50
2022-08-04T23:01:58.056Z,12.00
2022-08-04T23:04:31.461Z,8.80
2022-08-04T23:07:09.165Z,9.60
2022-08-04T23:09:50.254Z,9.60
2022-08-04T23:12:25.455Z,9.30
2022-08-04T23:14:56.620Z,11.90
2022-08-04T23:17:27.373Z,8.90
2022-08-04T23:19:59.084Z,12.30
2022-08-04T23:22:42.123Z,11.00
2022-08-04T23:25:15.874Z,11.10
2022-08-04T23:27:51.566Z,10.80
2022-08-04T23:30:29.891Z,9.50
2022-08-04T23:32:58.378Z,9.20
2022-08-04T23:35:26.173Z,10.30
2022-08-04T23:37:56.896Z,9.80
2022-08-04T23:40:30.154Z,9.10
2022-08-04T23:43:17.201Z,9.40
2022-08-04T23:46:07.831Z,10.10
2022-08-04T23:48:38.810Z,10.10
2022-08-04T23:51:14.406Z,7.40
2022-08-04T23:54:02.411Z,10.20
2022-08-04T23:56:34.098Z,11.10
2022-08-04T23:59:04.123Z,9.30
